Time;durP1;ratioP1;P1;durP2;ratioP2;P2;SDS_P1;SDS_P2;PMS_P1;PMS_P2;Temp;Humidity;BMP_temperature;BMP_pressure;BME280_temperature;BME280_humidity;BME280_pressure;Samples;Min_cycle;Max_cycle;Signal;HPM_P1;HPM_P2
2022/10/07 00:00:28;;;;;;;;;24.00;21.50;;;;;16.90;55.03;102227.13;2076825;28;46702;-63
2022/10/07 00:01:29;;;;;;;;;27.25;26.75;;;;;16.89;55.43;102222.63;2077692;28;46000;-62
2022/10/07 00:02:29;;;;;;;;;32.00;29.50;;;;;16.88;55.00;102220.00;2091860;28;46471;-64
2022/10/07 00:03:30;;;;;;;;;28.00;26.75;;;;;16.88;55.09;102222.69;2089820;28;47554;-62
2022/10/07 00:04:30;;;;;;;;;28.00;26.75;;;;;16.87;55.24;102220.91;2096226;28;46633;-63
2022/10/07 00:05:30;;;;;;;;;29.50;29.00;;;;;16.86;55.41;102224.53;2094825;28;46646;-63
2022/10/07 00:06:31;;;;;;;;;30.75;28.25;;;;;16.84;55.19;102221.88;2092951;28;46650;-63
2022/10/07 00:07:31;;;;;;;;;25.50;24.25;;;;;16.83;55.18;102216.56;2093236;28;46460;-63
2022/10/07 00:08:34;;;;;;;;;32.00;29.00;;;;;16.82;55.30;102218.34;2087372;28;46600;-64
2022/10/07 00:09:34;;;;;;;;;33.80;31.20;;;;;16.81;55.69;102216.59;2082008;28;46998;-64
2022/10/07 00:10:40;;;;;;;;;23.75;23.75;;;;;16.82;55.46;102217.47;2070073;28;45751;-63
2022/10/07 00:11:41;;;;;;;;;28.60;28.00;;;;;16.82;55.47;102220.16;2071191;28;46870;-63
2022/10/07 00:12:41;;;;;;;;;31.75;28.75;;;;;16.81;55.74;102219.28;2090544;28;45800;-63
2022/10/07 00:13:43;;;;;;;;;28.25;26.75;;;;;16.81;55.60;102215.72;2090738;28;46316;-62
2022/10/07 00:14:43;;;;;;;;;24.60;24.40;;;;;16.82;55.81;102214.78;2091634;28;47004;-63
2022/10/07 00:15:44;;;;;;;;;35.25;28.75;;;;;16.82;55.77;102212.13;2092828;28;45559;-63
2022/10/07 00:16:44;;;;;;;;;30.50;28.00;;;;;16.81;55.64;102223.75;2091156;28;46644;-64
2022/10/07 00:17:44;;;;;;;;;31.00;28.00;;;;;16.80;55.61;102217.53;2094417;28;46678;-64
2022/10/07 00:18:45;;;;;;;;;27.75;25.50;;;;;16.80;55.42;102211.28;2094113;28;46439;-64
2022/10/07 00:19:46;;;;;;;;;35.00;31.50;;;;;16.79;55.48;102218.44;2092301;28;46593;-63
2022/10/07 00:20:46;;;;;;;;;25.75;25.75;;;;;16.77;55.64;102213.13;2094040;28;46941;-63
2022/10/07 00:21:46;;;;;;;;;25.50;25.25;;;;;16.75;55.65;102204.19;2093545;28;45843;-63
2022/10/07 00:22:47;;;;;;;;;38.00;29.25;;;;;16.75;55.64;102204.19;2085883;28;46968;-62
2022/10/07 00:23:48;;;;;;;;;29.75;29.25;;;;;16.75;55.90;102201.53;2085471;28;46328;-64
2022/10/07 00:24:48;;;;;;;;;27.50;23.75;;;;;16.74;55.94;102201.56;2093286;28;46228;-63
2022/10/07 00:25:48;;;;;;;;;27.75;26.25;;;;;16.72;55.52;102206.97;2095495;28;45491;-63
2022/10/07 00:26:49;;;;;;;;;29.25;27.00;;;;;16.71;55.61;102205.19;2095625;28;46278;-64
2022/10/07 00:27:49;;;;;;;;;26.25;25.50;;;;;16.71;55.47;102207.00;2095130;28;47253;-63
2022/10/07 00:28:49;;;;;;;;;26.75;26.50;;;;;16.70;55.92;102203.44;2095861;28;46193;-64
2022/10/07 00:29:50;;;;;;;;;29.75;28.50;;;;;16.69;55.47;102204.34;2093271;28;45105;-63
2022/10/07 00:31:01;;;;;;;;;31.75;28.00;;;;;16.69;55.77;102208.84;2096265;28;45576;-64
2022/10/07 00:32:01;;;;;;;;;28.00;25.00;;;;;16.68;55.72;102209.75;2094007;28;46149;-64
2022/10/07 00:33:02;;;;;;;;;27.00;25.75;;;;;16.68;55.73;102207.97;2095509;28;46702;-62
2022/10/07 00:34:03;;;;;;;;;26.25;23.25;;;;;16.69;55.96;102209.72;2093153;28;46461;-64
2022/10/07 00:35:04;;;;;;;;;30.20;27.60;;;;;16.68;56.09;102202.59;2096587;28;46446;-64
2022/10/07 00:36:13;;;;;;;;;26.75;25.00;;;;;16.68;55.86;102202.59;2085619;28;46403;-63
2022/10/07 00:37:13;;;;;;;;;30.40;28.40;;;;;16.68;55.94;102207.09;2086686;28;47113;-63
2022/10/07 00:38:14;;;;;;;;;29.00;27.00;;;;;16.67;55.83;102203.53;2094636;28;46280;-63
2022/10/07 00:39:14;;;;;;;;;33.75;30.00;;;;;16.66;55.66;102204.41;2092562;28;45709;-64
2022/10/07 00:40:15;;;;;;;;;29.25;28.75;;;;;16.67;56.05;102199.94;2094889;28;45952;-63
2022/10/07 00:41:18;;;;;;;;;28.75;26.50;;;;;16.67;55.60;102203.53;2094922;28;46395;-63
2022/10/07 00:42:19;;;;;;;;;32.40;28.20;;;;;16.68;56.22;102201.72;2091604;28;45581;-63
2022/10/07 00:43:20;;;;;;;;;27.00;25.50;;;;;16.69;55.64;102200.81;2082513;28;46305;-62
2022/10/07 00:44:29;;;;;;;;;31.20;27.20;;;;;16.68;56.04;102199.03;2084036;28;46302;-63
2022/10/07 00:45:38;;;;;;;;;33.80;29.60;;;;;16.70;55.64;102194.53;2094601;28;48238;-64
2022/10/07 00:46:39;;;;;;;;;31.40;29.20;;;;;16.70;55.58;102194.53;2094932;28;46850;-63
2022/10/07 00:47:44;;;;;;;;;30.40;28.00;;;;;16.69;55.75;102190.06;2093715;28;46891;-63
2022/10/07 00:48:45;;;;;;;;;31.20;29.40;;;;;16.71;55.94;102196.28;2094060;28;47129;-62
2022/10/07 00:49:48;;;;;;;;;28.40;27.80;;;;;16.70;55.54;102194.53;2095017;28;46886;-63
2022/10/07 00:50:51;;;;;;;;;29.00;26.80;;;;;16.70;55.38;102186.47;2095926;28;47036;-62
2022/10/07 00:51:51;;;;;;;;;28.40;27.80;;;;;16.69;55.48;102192.75;2093530;28;46493;-63
2022/10/07 00:52:56;;;;;;;;;29.25;25.00;;;;;16.68;55.64;102191.88;2095752;28;46317;-64
2022/10/07 00:53:57;;;;;;;;;30.40;28.00;;;;;16.66;55.36;102192.81;2093777;28;47263;-63
2022/10/07 00:55:02;;;;;;;;;30.25;29.00;;;;;16.65;55.77;102189.25;2096081;28;45693;-63
2022/10/07 00:56:05;;;;;;;;;33.40;29.00;;;;;16.66;55.61;102192.81;2093412;28;46798;-62
2022/10/07 00:57:06;;;;;;;;;28.00;25.20;;;;;16.67;55.65;102189.19;2091479;28;46755;-62
2022/10/07 00:58:08;;;;;;;;;32.00;29.25;;;;;16.67;55.68;102184.75;2092262;28;46927;-63
2022/10/07 00:59:11;;;;;;;;;28.20;27.20;;;;;16.67;55.62;102187.44;2083642;28;46486;-62
2022/10/07 01:00:11;;;;;;;;;27.00;27.00;;;;;16.67;55.57;102186.53;2086178;28;46662;-64
2022/10/07 01:01:12;;;;;;;;;28.25;28.25;;;;;16.66;55.57;102185.66;2093941;28;46388;-61
2022/10/07 01:02:12;;;;;;;;;27.25;26.75;;;;;16.66;55.54;102177.59;2095100;28;46609;-62
2022/10/07 01:03:14;;;;;;;;;30.50;29.25;;;;;16.66;55.57;102182.09;2095411;28;45651;-65
2022/10/07 01:04:14;;;;;;;;;26.40;25.60;;;;;16.64;55.62;102184.81;2094768;28;46666;-62
2022/10/07 01:05:15;;;;;;;;;30.75;28.75;;;;;16.64;55.43;102178.53;2095127;28;46296;-62
2022/10/07 01:06:15;;;;;;;;;29.25;28.25;;;;;16.63;55.38;102179.44;2095793;28;45378;-63
2022/10/07 01:07:19;;;;;;;;;26.00;25.00;;;;;16.62;55.72;102183.94;2093041;28;46624;-63
2022/10/07 01:08:21;;;;;;;;;28.60;28.40;;;;;16.62;55.32;102177.69;2095538;28;46678;-64
2022/10/07 01:09:22;;;;;;;;;28.20;27.20;;;;;16.61;55.77;102184.84;2092931;28;46361;-65
2022/10/07 01:10:30;;;;;;;;;27.25;27.25;;;;;16.60;55.48;102177.72;2095763;28;45827;-63
2022/10/07 01:11:40;;;;;;;;;32.20;27.20;;;;;16.60;55.77;102182.22;2091894;28;46714;-62
2022/10/07 01:12:53;;;;;;;;;33.00;27.80;;;;;16.58;55.73;102181.38;2094740;28;46592;-63
2022/10/07 01:14:06;;;;;;;;;28.60;27.20;;;;;16.57;55.68;102177.81;2091461;28;45951;-64
2022/10/07 01:15:10;;;;;;;;;26.80;25.60;;;;;16.55;55.28;102174.28;2095354;28;46456;-64
2022/10/07 01:16:46;;;;;;;;;31.60;28.00;;;;;16.55;55.70;102171.59;2092697;28;46839;-63
2022/10/07 01:17:57;;;;;;;;;29.60;29.40;;;;;16.53;55.75;102172.56;2082361;28;46761;-62
2022/10/07 01:19:13;;;;;;;;;24.80;22.00;;;;;16.52;55.81;102160.09;2086598;28;46757;-64
2022/10/07 01:20:28;;;;;;;;;27.60;26.40;;;;;16.51;55.66;102160.97;2093956;28;46247;-62
2022/10/07 01:21:51;;;;;;;;;30.00;29.00;;;;;16.49;55.80;102163.69;2090763;28;45555;-63
2022/10/07 01:23:08;;;;;;;;;29.60;28.00;;;;;16.50;55.78;102160.09;2094111;28;46804;-64
2022/10/07 01:24:22;;;;;;;;;29.00;27.40;;;;;16.49;56.10;102153.84;2094385;28;47686;-63
2022/10/07 01:25:45;;;;;;;;;28.20;26.20;;;;;16.48;56.00;102159.25;2085413;28;46941;-63
2022/10/07 01:26:47;;;;;;;;;28.20;27.00;;;;;16.47;55.63;102153.00;2089124;28;46422;-62
2022/10/07 01:27:52;;;;;;;;;31.60;29.60;;;;;16.46;55.76;102153.94;2092124;28;44930;-63
2022/10/07 01:28:59;;;;;;;;;26.20;25.40;;;;;16.45;56.02;102153.97;2095295;28;46498;-62
2022/10/07 01:30:03;;;;;;;;;31.40;29.60;;;;;16.45;55.62;102160.22;2084877;28;46866;-62
2022/10/07 01:31:08;;;;;;;;;29.40;26.40;;;;;16.45;56.10;102153.97;2086437;28;46337;-64
2022/10/07 01:32:20;;;;;;;;;30.20;29.20;;;;;16.44;55.87;102155.78;2083981;28;46926;-65
2022/10/07 01:33:26;;;;;;;;;29.00;29.00;;;;;16.46;56.13;102155.72;2085152;28;46268;-63
2022/10/07 01:34:27;;;;;;;;;27.20;26.80;;;;;16.46;55.80;102153.94;2082402;28;46305;-63
2022/10/07 01:35:33;;;;;;;;;35.00;29.50;;;;;16.47;55.83;102149.47;2082463;28;45550;-62
2022/10/07 01:36:36;;;;;;;;;33.60;30.80;;;;;16.47;55.71;102154.81;2084461;28;45673;-63
2022/10/07 01:37:41;;;;;;;;;31.00;28.60;;;;;16.46;55.91;102151.25;2086101;28;47106;-63
2022/10/07 01:38:51;;;;;;;;;30.60;27.80;;;;;16.47;56.01;102153.00;2087234;28;46332;-63
2022/10/07 01:39:57;;;;;;;;;31.20;29.60;;;;;16.45;55.81;102151.28;2083574;28;46290;-63
2022/10/07 01:41:07;;;;;;;;;32.40;29.40;;;;;16.43;56.29;102147.78;2079358;28;45543;-62
2022/10/07 01:42:08;;;;;;;;;30.00;27.80;;;;;16.42;55.78;102144.22;2085651;28;46866;-62
2022/10/07 01:43:10;;;;;;;;;28.50;26.25;;;;;16.41;56.24;102142.44;2087171;28;46550;-62
2022/10/07 01:44:12;;;;;;;;;28.80;26.60;;;;;16.42;55.85;102140.66;2086289;28;47507;-63
2022/10/07 01:45:20;;;;;;;;;32.60;30.80;;;;;16.41;56.13;102141.56;2080969;28;46965;-64
2022/10/07 01:46:25;;;;;;;;;32.00;28.80;;;;;16.41;56.28;102142.44;2086276;28;46475;-63
2022/10/07 01:47:26;;;;;;;;;30.60;28.00;;;;;16.40;56.40;102132.66;2083631;28;46885;-62
2022/10/07 01:48:27;;;;;;;;;28.40;28.40;;;;;16.39;56.09;102135.38;2083999;28;46710;-62
2022/10/07 01:49:28;;;;;;;;;30.50;29.00;;;;;16.38;55.80;102133.59;2081409;28;46833;-64
2022/10/07 01:50:30;;;;;;;;;28.75;28.75;;;;;16.37;55.96;102129.16;2086881;28;46603;-62
2022/10/07 01:51:35;;;;;;;;;28.80;27.80;;;;;16.36;56.17;102128.25;2085640;28;46238;-63
2022/10/07 01:52:48;;;;;;;;;33.40;30.40;;;;;16.36;56.51;102128.25;2086425;28;46573;-63
2022/10/07 01:54:17;;;;;;;;;27.20;25.80;;;;;16.36;56.07;102124.69;2085102;28;46497;-62
2022/10/07 01:55:18;;;;;;;;;26.80;24.80;;;;;16.32;56.13;102123.91;2082273;28;46689;-64
2022/10/07 01:56:46;;;;;;;;;27.50;24.25;;;;;16.31;56.62;102126.63;2087258;28;46122;-61
2022/10/07 01:58:05;;;;;;;;;19.80;19.20;;;;;16.28;56.23;102121.34;2084675;28;46308;-64
2022/10/07 01:59:14;;;;;;;;;30.60;29.20;;;;;16.25;56.51;102114.22;2081750;28;47361;-62
2022/10/07 02:00:16;;;;;;;;;25.40;25.00;;;;;16.24;56.51;102119.63;2082338;28;45449;-63
2022/10/07 02:01:35;;;;;;;;;27.20;27.00;;;;;16.23;56.21;102115.19;2085918;28;46814;-63
2022/10/07 02:02:57;;;;;;;;;30.00;27.40;;;;;16.21;56.43;102115.22;2087047;28;46886;-62
2022/10/07 02:04:19;;;;;;;;;26.80;26.80;;;;;16.21;56.63;102112.56;2084725;28;46432;-63
2022/10/07 02:05:40;;;;;;;;;32.80;26.80;;;;;16.23;56.22;102112.50;2085705;28;46705;-65
2022/10/07 02:06:44;;;;;;;;;26.60;25.80;;;;;16.23;56.42;102109.84;2082694;28;46579;-62
2022/10/07 02:07:58;;;;;;;;;31.80;29.00;;;;;16.24;56.42;102108.91;2086353;28;46617;-63
2022/10/07 02:09:05;;;;;;;;;28.00;25.20;;;;;16.24;56.41;102103.56;2087869;28;46164;-63
2022/10/07 02:10:05;;;;;;;;;25.80;23.60;;;;;16.24;55.95;102107.13;2085480;28;46715;-64
2022/10/07 02:11:15;;;;;;;;;29.25;27.25;;;;;16.26;56.32;102104.41;2084616;28;45441;-65
2022/10/07 02:12:36;;;;;;;;;21.00;19.00;;;;;16.27;55.93;102103.50;2085895;28;45671;-62
2022/10/07 02:13:46;;;;;;;;;26.40;24.40;;;;;16.27;56.34;102100.84;2080751;28;45510;-62
2022/10/07 02:15:21;;;;;;;;;23.60;22.40;;;;;16.26;56.00;102091.91;2086613;28;46161;-64
2022/10/07 02:16:30;;;;;;;;;25.80;25.20;;;;;16.24;56.01;102093.72;2085420;28;47018;-62
2022/10/07 02:17:36;;;;;;;;;26.60;25.80;;;;;16.23;56.29;102096.44;2085126;28;46446;-63
2022/10/07 02:18:40;;;;;;;;;29.00;25.80;;;;;16.22;56.11;102097.34;2085194;28;46709;-64
2022/10/07 02:19:46;;;;;;;;;30.00;29.80;;;;;16.20;56.23;102089.38;2085250;28;46364;-61
2022/10/07 02:20:51;;;;;;;;;26.60;25.60;;;;;16.18;56.42;102092.06;2085746;28;46778;-62
2022/10/07 02:21:56;;;;;;;;;24.60;23.80;;;;;16.19;56.17;102095.63;2083276;28;48297;-63
2022/10/07 02:23:01;;;;;;;;;23.40;21.20;;;;;16.19;56.44;102093.84;2083139;28;46650;-63
2022/10/07 02:24:03;;;;;;;;;25.00;25.00;;;;;16.19;56.13;102087.59;2084549;28;46617;-65
2022/10/07 02:25:05;;;;;;;;;29.20;25.60;;;;;16.19;56.36;102091.16;2085312;28;46296;-61
2022/10/07 02:26:10;;;;;;;;;26.00;24.80;;;;;16.21;56.37;102087.56;2085695;28;47271;-62
2022/10/07 02:27:15;;;;;;;;;19.00;18.00;;;;;16.20;56.48;102092.03;2088114;28;46425;-62
2022/10/07 02:28:20;;;;;;;;;29.40;24.80;;;;;16.20;56.07;102086.69;2086474;28;46364;-62
2022/10/07 02:29:24;;;;;;;;;23.80;23.00;;;;;16.19;56.41;102080.44;2087541;28;46714;-63
2022/10/07 02:30:24;;;;;;;;;26.60;25.20;;;;;16.19;56.17;102074.22;2086150;28;45922;-61
2022/10/07 02:31:30;;;;;;;;;26.00;24.25;;;;;16.17;56.50;102076.94;2088003;28;46244;-62
2022/10/07 02:32:33;;;;;;;;;26.00;26.00;;;;;16.16;56.33;102077.84;2096811;28;46431;-62
2022/10/07 02:33:34;;;;;;;;;30.40;26.80;;;;;16.15;56.28;102072.53;2093320;28;46626;-62
2022/10/07 02:34:37;;;;;;;;;25.60;23.60;;;;;16.13;56.05;102067.22;2096739;28;46921;-61
2022/10/07 02:35:44;;;;;;;;;27.20;26.00;;;;;16.11;56.42;102060.97;2091192;28;46305;-62
2022/10/07 02:37:00;;;;;;;;;29.00;26.40;;;;;16.10;56.54;102071.75;2087515;28;46705;-62
2022/10/07 02:38:06;;;;;;;;;27.40;25.80;;;;;16.09;56.58;102068.19;2092911;28;46966;-63
2022/10/07 02:39:07;;;;;;;;;23.80;23.80;;;;;16.06;56.24;102068.25;2087925;28;45758;-63
2022/10/07 02:40:07;;;;;;;;;28.50;27.75;;;;;16.05;56.72;102070.97;2086397;28;45851;-64
2022/10/07 02:41:32;;;;;;;;;31.75;30.00;;;;;16.04;56.91;102069.22;2096989;28;47024;-62
2022/10/07 02:42:54;;;;;;;;;24.80;23.40;;;;;16.03;56.38;102067.47;2094306;28;46991;-65
2022/10/07 02:44:17;;;;;;;;;28.60;26.20;;;;;16.04;56.87;102063.84;2093439;28;46983;-63
2022/10/07 02:45:27;;;;;;;;;25.40;25.00;;;;;16.02;56.36;102063.91;2089649;28;46788;-64
2022/10/07 02:46:37;;;;;;;;;26.20;23.20;;;;;16.03;56.65;102065.66;2092515;28;46600;-62
2022/10/07 02:47:46;;;;;;;;;26.80;26.80;;;;;16.03;56.60;102057.63;2086863;28;47112;-63
2022/10/07 02:48:57;;;;;;;;;24.80;20.40;;;;;16.03;56.89;102056.75;2092247;28;46864;-64
2022/10/07 02:50:03;;;;;;;;;29.80;27.20;;;;;16.02;56.86;102052.31;2094046;28;46636;-62
2022/10/07 02:51:08;;;;;;;;;22.00;19.60;;;;;16.01;56.95;102062.13;2096982;28;46008;-62
2022/10/07 02:52:13;;;;;;;;;30.00;28.20;;;;;16.00;56.90;102052.31;2091033;28;46574;-62
2022/10/07 02:53:15;;;;;;;;;26.00;23.80;;;;;16.00;56.50;102059.47;2093984;28;46425;-63
2022/10/07 02:54:23;;;;;;;;;28.80;25.80;;;;;15.99;56.70;102057.72;2090061;28;46201;-63
2022/10/07 02:55:26;;;;;;;;;26.20;25.60;;;;;15.98;57.06;102059.50;2089678;28;45905;-64
2022/10/07 02:56:29;;;;;;;;;27.40;25.60;;;;;15.97;56.62;102051.50;2093899;28;46629;-63
2022/10/07 02:57:35;;;;;;;;;25.00;24.20;;;;;15.95;56.85;102048.88;2093263;28;46853;-62
2022/10/07 02:58:43;;;;;;;;;23.80;23.40;;;;;15.96;56.76;102047.97;2094302;28;45746;-63
2022/10/07 02:59:46;;;;;;;;;16.60;15.60;;;;;15.95;56.96;102046.19;2094969;28;46748;-63
2022/10/07 03:00:51;;;;;;;;;27.40;27.20;;;;;15.94;56.80;102043.56;2093982;28;46721;-61
2022/10/07 03:01:57;;;;;;;;;27.40;25.00;;;;;15.92;57.06;102048.94;2095189;28;46662;-63
2022/10/07 03:03:03;;;;;;;;;23.20;20.60;;;;;15.92;56.55;102046.28;2096585;28;46963;-62
2022/10/07 03:04:04;;;;;;;;;29.20;26.20;;;;;15.91;57.02;102043.63;2095257;28;46683;-64
2022/10/07 03:05:08;;;;;;;;;26.75;24.75;;;;;15.92;57.04;102048.06;2087959;28;45917;-63
2022/10/07 03:06:08;;;;;;;;;30.80;28.60;;;;;15.90;56.66;102040.06;2085711;28;46270;-61
2022/10/07 03:07:11;;;;;;;;;21.75;21.50;;;;;15.91;56.77;102043.63;2094628;28;45913;-62
2022/10/07 03:08:11;;;;;;;;;29.60;28.00;;;;;15.89;56.58;102044.56;2095915;28;47698;-62
2022/10/07 03:09:12;;;;;;;;;26.75;25.25;;;;;15.87;57.01;102038.31;2095935;28;46699;-63
2022/10/07 03:10:13;;;;;;;;;23.75;23.00;;;;;15.87;56.92;102041.00;2095053;28;46680;-62
2022/10/07 03:11:14;;;;;;;;;27.20;25.00;;;;;15.86;57.33;102039.25;2091580;28;47199;-64
2022/10/07 03:12:14;;;;;;;;;32.00;30.00;;;;;15.86;56.80;102041.03;2095178;28;45942;-64
2022/10/07 03:13:14;;;;;;;;;31.25;29.50;;;;;15.86;56.83;102041.03;2096122;28;46565;-63
2022/10/07 03:14:14;;;;;;;;;28.75;28.75;;;;;15.87;57.20;102032.09;2094769;28;46728;-63
2022/10/07 03:15:15;;;;;;;;;31.25;28.75;;;;;15.87;56.64;102041.00;2096100;28;46657;-63
2022/10/07 03:16:15;;;;;;;;;29.75;27.25;;;;;15.88;56.82;102040.13;2092380;28;46878;-62
2022/10/07 03:17:16;;;;;;;;;28.50;28.50;;;;;15.89;56.79;102041.00;2088193;28;46088;-63
2022/10/07 03:18:26;;;;;;;;;24.00;22.80;;;;;15.89;57.09;102041.88;2095948;28;46948;-62
2022/10/07 03:19:27;;;;;;;;;23.80;22.60;;;;;15.89;56.75;102032.97;2086367;28;46892;-63
2022/10/07 03:20:29;;;;;;;;;23.25;23.00;;;;;15.89;57.21;102035.66;2087131;28;45037;-63
2022/10/07 03:21:33;;;;;;;;;28.00;26.60;;;;;15.89;57.00;102032.97;2082583;28;47075;-63
2022/10/07 03:22:33;;;;;;;;;27.60;26.20;;;;;15.89;57.11;102032.97;2086737;28;46020;-61
2022/10/07 03:23:34;;;;;;;;;26.75;25.50;;;;;15.89;57.08;102033.84;2090813;28;46723;-65
2022/10/07 03:24:34;;;;;;;;;26.00;26.00;;;;;15.90;57.08;102029.38;2092777;28;46136;-63
2022/10/07 03:25:34;;;;;;;;;28.25;28.25;;;;;15.90;56.69;102026.69;2094963;28;46855;-63
2022/10/07 03:26:35;;;;;;;;;24.25;23.50;;;;;15.90;56.53;102032.03;2094135;28;46027;-63
2022/10/07 03:27:35;;;;;;;;;25.75;25.75;;;;;15.90;57.01;102029.38;2092832;28;46339;-62
2022/10/07 03:28:36;;;;;;;;;17.75;15.25;;;;;15.88;56.82;102021.38;2094674;28;45756;-62
2022/10/07 03:29:36;;;;;;;;;25.50;25.50;;;;;15.88;57.02;102023.19;2090024;28;47925;-62
2022/10/07 03:30:36;;;;;;;;;24.00;21.25;;;;;15.89;57.21;102024.94;2094986;28;46949;-64
2022/10/07 03:31:37;;;;;;;;;26.00;25.50;;;;;15.89;57.06;102028.50;2095014;28;46195;-63
2022/10/07 03:32:38;;;;;;;;;33.00;29.50;;;;;15.90;56.67;102021.34;2095275;28;47100;-64
2022/10/07 03:33:39;;;;;;;;;24.40;24.40;;;;;15.89;56.85;102023.13;2094058;28;46647;-63
2022/10/07 03:34:39;;;;;;;;;28.50;26.25;;;;;15.89;56.85;102020.47;2092585;28;45740;-63
2022/10/07 03:35:40;;;;;;;;;32.00;28.50;;;;;15.88;56.93;102024.06;2090767;28;46978;-62
2022/10/07 03:36:41;;;;;;;;;30.20;28.40;;;;;15.88;57.09;102020.50;2091362;28;46421;-63
2022/10/07 03:37:41;;;;;;;;;26.50;26.25;;;;;15.88;56.64;102020.50;2094518;28;46789;-63
2022/10/07 03:38:42;;;;;;;;;31.50;28.00;;;;;15.90;56.93;102021.34;2095932;28;46622;-64
2022/10/07 03:39:42;;;;;;;;;33.25;31.50;;;;;15.88;57.08;102018.69;2092859;28;45528;-63
2022/10/07 03:40:43;;;;;;;;;27.00;27.00;;;;;15.89;56.53;102022.25;2095643;28;46402;-62
2022/10/07 03:41:44;;;;;;;;;28.00;24.80;;;;;15.88;56.52;102021.38;2094993;28;46859;-64
2022/10/07 03:42:44;;;;;;;;;28.00;28.00;;;;;15.87;56.93;102024.94;2096035;28;46355;-63
2022/10/07 03:43:45;;;;;;;;;28.75;27.00;;;;;15.87;56.84;102016.91;2095186;28;46603;-63
2022/10/07 03:44:47;;;;;;;;;27.00;25.50;;;;;15.86;56.85;102020.50;2095586;28;46900;-62
2022/10/07 03:45:49;;;;;;;;;31.20;27.60;;;;;15.85;57.21;102013.41;2091336;28;46649;-62
2022/10/07 03:46:50;;;;;;;;;28.60;26.20;;;;;15.85;57.09;102012.50;2091781;28;46497;-64
2022/10/07 03:47:50;;;;;;;;;31.60;27.60;;;;;15.86;56.92;102019.63;2092982;28;45940;-63
2022/10/07 03:48:51;;;;;;;;;28.50;28.50;;;;;15.84;56.58;102011.63;2087221;28;46385;-62
2022/10/07 03:49:52;;;;;;;;;29.75;27.75;;;;;15.83;56.53;102015.22;2084286;28;46704;-62
2022/10/07 03:50:59;;;;;;;;;27.60;26.40;;;;;15.84;56.87;102013.44;2087028;28;45529;-63
2022/10/07 03:52:01;;;;;;;;;31.40;29.80;;;;;15.81;57.20;102019.75;2085394;28;46693;-62
2022/10/07 03:53:02;;;;;;;;;23.60;20.80;;;;;15.81;56.85;102021.53;2078947;28;46776;-64
2022/10/07 03:54:02;;;;;;;;;29.25;28.00;;;;;15.80;57.16;102025.13;2076592;28;46337;-63
2022/10/07 03:55:03;;;;;;;;;22.00;18.00;;;;;15.78;57.25;102018.94;2087072;28;46674;-62
2022/10/07 03:56:03;;;;;;;;;26.75;24.75;;;;;15.76;57.00;102015.41;2084880;28;46754;-63
2022/10/07 03:57:48;;;;;;;;;27.00;24.75;;;;;15.75;57.22;102018.97;2086959;28;46415;-63
2022/10/07 03:58:24;;;;;;;;;20.80;20.40;;;;;15.73;56.80;102013.66;2085062;28;47069;-63
2022/10/07 03:59:25;;;;;;;;;27.25;26.50;;;;;15.71;56.88;102011.94;2087156;28;46387;-63
2022/10/07 04:00:26;;;;;;;;;25.75;25.75;;;;;15.70;57.35;102010.19;2086984;28;46461;-64
2022/10/07 04:01:30;;;;;;;;;6.40;3.20;;;;;15.69;57.43;102016.47;2088769;28;46502;-62
2022/10/07 04:02:30;;;;;;;;;31.80;28.20;;;;;15.69;57.33;102017.34;2080819;28;46722;-63
2022/10/07 04:03:31;;;;;;;;;31.75;29.00;;;;;15.71;57.51;102011.94;2077600;28;46764;-62
2022/10/07 04:04:31;;;;;;;;;25.75;23.75;;;;;15.70;57.49;102015.53;2085816;28;46079;-63
2022/10/07 04:05:33;;;;;;;;;32.00;29.50;;;;;15.70;57.09;102013.75;2078098;28;46465;-63
2022/10/07 04:06:34;;;;;;;;;24.60;18.60;;;;;15.70;57.09;102013.75;2073019;28;46352;-63
2022/10/07 04:07:34;;;;;;;;;25.50;24.00;;;;;15.71;57.23;102014.63;2078370;28;46293;-63
2022/10/07 04:08:35;;;;;;;;;25.00;23.25;;;;;15.71;57.47;102014.63;2086904;28;46714;-63
2022/10/07 04:09:35;;;;;;;;;27.75;26.75;;;;;15.72;57.23;102011.03;2088715;28;46520;-62
2022/10/07 04:10:35;;;;;;;;;30.00;28.00;;;;;15.73;57.24;102008.31;2085968;28;46545;-62
2022/10/07 04:11:39;;;;;;;;;28.25;26.25;;;;;15.73;57.34;102011.00;2086501;28;46214;-62
2022/10/07 04:12:40;;;;;;;;;27.40;27.20;;;;;15.74;57.06;102011.88;2087377;28;46570;-62
2022/10/07 04:13:40;;;;;;;;;25.20;24.40;;;;;15.74;57.00;102014.53;2086059;28;46619;-62
2022/10/07 04:14:41;;;;;;;;;28.25;27.00;;;;;15.72;57.66;102006.56;2086468;28;45900;-62
2022/10/07 04:15:41;;;;;;;;;25.50;24.25;;;;;15.72;56.82;102008.34;2083695;28;46385;-63
2022/10/07 04:16:41;;;;;;;;;25.25;24.50;;;;;15.72;57.37;102003.88;2085896;28;46157;-63
2022/10/07 04:17:43;;;;;;;;;22.75;22.75;;;;;15.72;56.99;102011.91;2089828;28;46511;-62
2022/10/07 04:18:44;;;;;;;;;27.00;26.60;;;;;15.72;57.09;102008.34;2086109;28;45877;-64
2022/10/07 04:19:45;;;;;;;;;29.60;27.40;;;;;15.70;57.23;102005.72;2086332;28;45446;-62
2022/10/07 04:20:45;;;;;;;;;31.00;28.50;;;;;15.70;57.12;102005.72;2090150;28;46244;-62
2022/10/07 04:21:45;;;;;;;;;26.50;26.50;;;;;15.69;57.25;102006.63;2093370;28;46717;-63
2022/10/07 04:22:45;;;;;;;;;25.75;22.50;;;;;15.68;57.03;102006.66;2093658;28;45442;-64
2022/10/07 04:23:46;;;;;;;;;31.75;26.00;;;;;15.66;57.28;102008.50;2091695;28;46538;-63
2022/10/07 04:25:32;;;;;;;;;26.00;26.00;;;;;15.65;57.24;102004.06;2096009;28;46462;-63
2022/10/07 04:26:11;;;;;;;;;9.00;5.60;;;;;15.62;57.50;101999.63;2094317;28;46574;-64
2022/10/07 04:27:12;;;;;;;;;25.40;24.80;;;;;15.59;57.21;101997.00;2094969;28;46415;-64
2022/10/07 04:28:20;;;;;;;;;25.25;23.75;;;;;15.57;57.78;102002.41;2095342;28;46697;-63
2022/10/07 04:29:21;;;;;;;;;28.00;25.60;;;;;15.57;57.87;102001.50;2094913;28;46385;-63
2022/10/07 04:30:23;;;;;;;;;29.25;27.75;;;;;15.56;57.53;101997.97;2095981;28;45752;-63
2022/10/07 04:31:23;;;;;;;;;26.40;25.60;;;;;15.55;57.61;101996.19;2086974;28;46824;-64
2022/10/07 04:32:24;;;;;;;;;25.75;25.75;;;;;15.55;57.47;101996.19;2090975;28;46384;-63
2022/10/07 04:33:24;;;;;;;;;24.75;24.75;;;;;15.56;57.66;101999.75;2093896;28;48134;-64
2022/10/07 04:34:24;;;;;;;;;23.25;23.00;;;;;15.56;57.36;101995.28;2092408;28;46291;-65
2022/10/07 04:35:25;;;;;;;;;24.25;24.00;;;;;15.56;57.79;101995.28;2095265;28;45222;-63
2022/10/07 04:36:26;;;;;;;;;28.75;27.00;;;;;15.57;57.64;102001.50;2093964;28;45761;-64
2022/10/07 04:37:27;;;;;;;;;27.20;24.00;;;;;15.56;57.48;101997.09;2092638;28;46721;-64
2022/10/07 04:38:27;;;;;;;;;25.75;25.75;;;;;15.57;57.35;101993.50;2096484;28;46336;-63
2022/10/07 04:39:27;;;;;;;;;30.75;26.50;;;;;15.58;57.34;101990.78;2094206;28;46517;-64
2022/10/07 04:40:27;;;;;;;;;26.25;25.75;;;;;15.58;57.35;101996.13;2093266;28;46311;-64
2022/10/07 04:41:28;;;;;;;;;27.50;26.25;;;;;15.58;57.39;101993.44;2094836;28;46156;-64
2022/10/07 04:43:51;;;;;;;;;23.20;21.80;;;;;15.58;57.36;102004.16;2092166;28;48297;-63
2022/10/07 04:44:51;;;;;;;;;25.60;23.80;;;;;15.59;57.41;101997.91;2093436;28;46881;-63
2022/10/07 04:45:58;;;;;;;;;26.75;26.75;;;;;15.60;57.04;101997.00;2090365;28;46758;-64
2022/10/07 04:46:59;;;;;;;;;26.00;24.00;;;;;15.60;57.05;101994.31;2093008;28;46760;-64
2022/10/07 04:48:00;;;;;;;;;32.75;31.00;;;;;15.60;57.36;101994.31;2090711;28;47094;-63
2022/10/07 04:49:01;;;;;;;;;70.40;61.40;;;;;15.60;57.26;101991.66;2088834;28;46737;-63
2022/10/07 04:50:02;;;;;;;;;43.25;35.00;;;;;15.59;57.30;101989.91;2092026;28;46468;-64
2022/10/07 04:51:04;;;;;;;;;36.40;33.20;;;;;15.56;57.05;101989.94;2089127;28;46885;-63
2022/10/07 04:52:05;;;;;;;;;32.60;30.00;;;;;15.57;57.55;101990.81;2092898;28;46691;-63
2022/10/07 04:53:07;;;;;;;;;26.00;23.75;;;;;15.56;57.21;101989.94;2096670;28;46618;-65